Bitflower — SBJE — position and weather

sailwx.info

Track history (hours):
 
Tides and Currents Weather Stations Pressure Air Temp Water Temp Dewpoint Dewpoint Depression Visibility Wind Speed Wind Dir Waves Ship Positions

Bitflower

Last reported at 2014-Sep-01 13:31 UTC. Time now 2014-Sep-01 13:56 UTC.
Position N 51°16' E 004°20'.

Length 116 m; draft 5.9 m.

Type: Ship. MMSI: 266009000.

Date/timePositionNaut miles runAvg speedWind from/ knotsBaromVisibWave heightAir tempDewpointWater temp
2014-Sep-01 13:31N 51°16' E 004°20'0 0.0
2014-Sep-01 12:31N 51°16' E 004°20'0 0.0
2014-Sep-01 11:31N 51°16' E 004°20'0 0.0
2014-Sep-01 10:31N 51°16' E 004°20'0 0.1
2014-Sep-01 09:31N 51°16' E 004°20'0 0.0
2014-Sep-01 08:31N 51°16' E 004°20'0 0.0
2014-Sep-01 07:31N 51°16' E 004°20'0 0.0
2014-Sep-01 06:31N 51°16' E 004°20'0 0.0
2014-Sep-01 05:29N 51°16' E 004°20'0 0.0
2014-Sep-01 04:31N 51°16' E 004°20'0 0.0
2014-Sep-01 03:20N 51°16' E 004°20'0 0.0
2014-Sep-01 02:32N 51°16' E 004°20'0 0.0
2014-Sep-01 01:32N 51°16' E 004°20'0 0.0
2014-Sep-01 00:23N 51°16' E 004°20'0 0.0
2014-Aug-31 23:26N 51°16' E 004°20'0 0.0
2014-Aug-31 22:32N 51°16' E 004°20'0 0.0
2014-Aug-31 21:32N 51°16' E 004°20'0 0.0
2014-Aug-31 20:32N 51°16' E 004°20'0 0.0
2014-Aug-31 19:26N 51°16' E 004°20'0 0.0
2014-Aug-31 18:26N 51°16' E 004°20'0 0.0
2014-Aug-31 17:29N 51°16' E 004°20'0 0.0
2014-Aug-31 16:29N 51°16' E 004°20'0 0.0
2014-Aug-31 15:32N 51°16' E 004°20'0 0.0
2014-Aug-31 14:32N 51°16' E 004°20'0 0.0
2014-Aug-31 13:29N 51°16' E 004°20'0 0.0
2014-Aug-31 12:29N 51°16' E 004°20'0 0.0
2014-Aug-31 11:33N 51°16' E 004°20'1 1.0
2014-Aug-31 10:34N 51°17' E 004°20'6 6.4
2014-Aug-31 09:33N 51°22' E 004°13'8 8.1
2014-Aug-31 08:33N 51°25' E 004°02'9 9.2
2014-Aug-31 07:34N 51°21' E 003°49'1010.2
2014-Aug-31 06:33N 51°25' E 003°34'7 6.8
2014-Aug-31 05:33N 51°24' E 003°23'1010.2
2014-Aug-31 04:34N 51°24' E 003°07'1312.6
2014-Aug-31 03:34N 51°22' E 002°47'7 6.9
2014-Aug-31 02:32N 51°20' E 002°36'0 0.1
2014-Aug-31 01:24N 51°20' E 002°36'0 0.1
2014-Aug-31 00:32N 51°20' E 002°36'0 0.1
2014-Aug-30 23:30N 51°20' E 002°36'0 0.0
2014-Aug-30 22:32N 51°20' E 002°36'0 0.0
2014-Aug-30 21:32N 51°20' E 002°36'0 0.2
2014-Aug-30 20:32N 51°20' E 002°36'0 0.0
2014-Aug-30 19:32N 51°20' E 002°36'0 0.0
2014-Aug-30 18:30N 51°20' E 002°36'0 0.0
2014-Aug-30 17:32N 51°20' E 002°36'0 0.0
2014-Aug-30 16:32N 51°20' E 002°36'0 0.0
2014-Aug-30 15:32N 51°20' E 002°36'0 0.0
2014-Aug-30 14:32N 51°20' E 002°36'0 0.0
2014-Aug-30 13:32N 51°20' E 002°36'0 0.1
2014-Aug-30 12:32N 51°20' E 002°36'0 0.1
2014-Aug-30 11:32N 51°20' E 002°36'0 0.0
2014-Aug-30 10:32N 51°20' E 002°36'0 0.1
2014-Aug-30 09:32N 51°20' E 002°36'0 0.0
2014-Aug-30 08:32N 51°20' E 002°36'0 0.0
2014-Aug-30 07:32N 51°20' E 002°36'0 0.0
2014-Aug-30 06:32N 51°20' E 002°36'0 0.0
2014-Aug-30 05:32N 51°20' E 002°36'0 0.0
2014-Aug-30 04:26N 51°20' E 002°36'0 0.0
2014-Aug-30 03:30N 51°20' E 002°36'0 0.0
2014-Aug-30 02:32N 51°20' E 002°36'0 0.0
2014-Aug-30 01:32N 51°20' E 002°36'0 0.0
2014-Aug-30 00:32N 51°20' E 002°36'0 0.0
2014-Aug-29 23:30N 51°20' E 002°36'0 0.0
2014-Aug-29 22:30N 51°20' E 002°36'0 0.0
2014-Aug-29 21:26N 51°20' E 002°36'0 0.0
2014-Aug-29 20:32N 51°20' E 002°36'0 0.0
2014-Aug-29 19:32N 51°20' E 002°36'0 0.0
2014-Aug-29 18:32N 51°20' E 002°36'0 0.0
2014-Aug-29 17:32N 51°20' E 002°36'0 0.0
2014-Aug-29 16:32N 51°20' E 002°36'0 0.0
2014-Aug-29 15:32N 51°20' E 002°36'0 0.0
2014-Aug-29 14:30N 51°20' E 002°36'0 0.0
2014-Aug-29 13:32N 51°20' E 002°36'0 0.0
2014-Aug-29 12:32N 51°20' E 002°36'8 7.6
2014-Aug-29 11:32N 51°20' E 002°24'1312.1
2014-Aug-29 10:30N 51°14' E 002°07'10 9.8
2014-Aug-29 09:31N 51°09' E 001°54'8 8.8
2014-Aug-29 08:33N 51°04' E 001°42'9 9.0
2014-Aug-29 07:33N 50°58' E 001°32'3510.1
2014-Aug-29 04:06N 50°30' E 000°59'610.9
2014-Aug-29 03:33N 50°28' E 000°50'1111.0
2014-Aug-29 02:33N 50°26' E 000°33'  
2014-Aug-25 05:14N 50°33' E 000°04'1014.6
2014-Aug-25 04:34N 50°35' E 000°20'1514.7
2014-Aug-25 03:34N 50°41' E 000°41'3213.4
2014-Aug-25 01:09N 50°59' E 001°24'711.2
2014-Aug-25 00:33N 51°04' E 001°31'1110.7
2014-Aug-24 23:33N 51°11' E 001°43'1211.9
2014-Aug-24 22:33N 51°21' E 001°54'1413.7
2014-Aug-24 21:33N 51°32' E 002°07'15113.5
2014-Aug-24 10:23N 53°30' E 004°43'1213.8
2014-Aug-24 09:32N 53°34' E 005°01'1212.5
2014-Aug-24 08:33N 53°38' E 005°21'1212.2
2014-Aug-24 07:33N 53°41' E 005°40'1311.8
2014-Aug-24 06:25N 53°45' E 006°02'15 7.0
2014-Aug-24 04:18N 53°37' E 006°22'1112.0
2014-Aug-24 03:21N 53°34' E 006°40'1113.5
2014-Aug-24 02:34N 53°27' E 006°54'8 7.5
2014-Aug-24 01:31N 53°19' E 006°58'0 0.0
2014-Aug-24 00:31N 53°19' E 006°58'0 0.0
2014-Aug-23 23:31N 53°19' E 006°58'0 0.0
2014-Aug-23 22:31N 53°19' E 006°58'0 0.0
2014-Aug-23 21:29N 53°19' E 006°58'0 0.0
2014-Aug-23 20:31N 53°19' E 006°58'0 0.0
2014-Aug-23 19:31N 53°19' E 006°58'0 0.0
2014-Aug-23 03:31N 53°19' E 006°58'0 0.0
2014-Aug-23 02:31N 53°19' E 006°58'0 0.0
2014-Aug-23 01:31N 53°19' E 006°58'0 0.0
2014-Aug-23 00:25N 53°19' E 006°58'0 0.0
2014-Aug-22 23:31N 53°19' E 006°58'0 0.0
2014-Aug-22 22:25N 53°19' E 006°58'0 0.0
2014-Aug-22 21:31N 53°19' E 006°58'0 0.0
2014-Aug-22 20:31N 53°19' E 006°58'0 0.0
2014-Aug-22 19:25N 53°19' E 006°58'0 0.0
2014-Aug-22 18:25N 53°19' E 006°58'0 0.0
2014-Aug-22 17:31N 53°19' E 006°58'1 1.2
2014-Aug-22 16:33N 53°20' E 006°56'5 5.5
2014-Aug-22 15:34N 53°25' E 006°56'  
Track history (hours):
 
Tides and Currents Weather Stations Pressure Air Temp Water Temp Dewpoint Dewpoint Depression Visibility Wind Speed Wind Dir Waves Ship Positions

Bitflower

Last reported at 2014-Sep-01 13:31 UTC. Time now 2014-Sep-01 13:56 UTC.
Position N 51°16' E 004°20'.

Length 116 m; draft 5.9 m.

Type: Ship. MMSI: 266009000.

Date/timePositionNaut miles runAvg speedWind from/ knotsBaromVisibWave heightAir tempDewpointWater temp
2014-Sep-01 13:31N 51°16' E 004°20'0 0.0
2014-Sep-01 12:31N 51°16' E 004°20'0 0.0
2014-Sep-01 11:31N 51°16' E 004°20'0 0.0
2014-Sep-01 10:31N 51°16' E 004°20'0 0.1
2014-Sep-01 09:31N 51°16' E 004°20'0 0.0
2014-Sep-01 08:31N 51°16' E 004°20'0 0.0
2014-Sep-01 07:31N 51°16' E 004°20'0 0.0
2014-Sep-01 06:31N 51°16' E 004°20'0 0.0
2014-Sep-01 05:29N 51°16' E 004°20'0 0.0
2014-Sep-01 04:31N 51°16' E 004°20'0 0.0
2014-Sep-01 03:20N 51°16' E 004°20'0 0.0
2014-Sep-01 02:32N 51°16' E 004°20'0 0.0
2014-Sep-01 01:32N 51°16' E 004°20'0 0.0
2014-Sep-01 00:23N 51°16' E 004°20'0 0.0
2014-Aug-31 23:26N 51°16' E 004°20'0 0.0
2014-Aug-31 22:32N 51°16' E 004°20'0 0.0
2014-Aug-31 21:32N 51°16' E 004°20'0 0.0
2014-Aug-31 20:32N 51°16' E 004°20'0 0.0
2014-Aug-31 19:26N 51°16' E 004°20'0 0.0
2014-Aug-31 18:26N 51°16' E 004°20'0 0.0
2014-Aug-31 17:29N 51°16' E 004°20'0 0.0
2014-Aug-31 16:29N 51°16' E 004°20'0 0.0
2014-Aug-31 15:32N 51°16' E 004°20'0 0.0
2014-Aug-31 14:32N 51°16' E 004°20'0 0.0
2014-Aug-31 13:29N 51°16' E 004°20'0 0.0
2014-Aug-31 12:29N 51°16' E 004°20'0 0.0
2014-Aug-31 11:33N 51°16' E 004°20'1 1.0
2014-Aug-31 10:34N 51°17' E 004°20'6 6.4
2014-Aug-31 09:33N 51°22' E 004°13'8 8.1
2014-Aug-31 08:33N 51°25' E 004°02'9 9.2
2014-Aug-31 07:34N 51°21' E 003°49'1010.2
2014-Aug-31 06:33N 51°25' E 003°34'7 6.8
2014-Aug-31 05:33N 51°24' E 003°23'1010.2
2014-Aug-31 04:34N 51°24' E 003°07'1312.6
2014-Aug-31 03:34N 51°22' E 002°47'7 6.9
2014-Aug-31 02:32N 51°20' E 002°36'0 0.1
2014-Aug-31 01:24N 51°20' E 002°36'0 0.1
2014-Aug-31 00:32N 51°20' E 002°36'0 0.1
2014-Aug-30 23:30N 51°20' E 002°36'0 0.0
2014-Aug-30 22:32N 51°20' E 002°36'0 0.0
2014-Aug-30 21:32N 51°20' E 002°36'0 0.2
2014-Aug-30 20:32N 51°20' E 002°36'0 0.0
2014-Aug-30 19:32N 51°20' E 002°36'0 0.0
2014-Aug-30 18:30N 51°20' E 002°36'0 0.0
2014-Aug-30 17:32N 51°20' E 002°36'0 0.0
2014-Aug-30 16:32N 51°20' E 002°36'0 0.0
2014-Aug-30 15:32N 51°20' E 002°36'0 0.0
2014-Aug-30 14:32N 51°20' E 002°36'0 0.0
2014-Aug-30 13:32N 51°20' E 002°36'0 0.1
2014-Aug-30 12:32N 51°20' E 002°36'0 0.1
2014-Aug-30 11:32N 51°20' E 002°36'0 0.0
2014-Aug-30 10:32N 51°20' E 002°36'0 0.1
2014-Aug-30 09:32N 51°20' E 002°36'0 0.0
2014-Aug-30 08:32N 51°20' E 002°36'0 0.0
2014-Aug-30 07:32N 51°20' E 002°36'0 0.0
2014-Aug-30 06:32N 51°20' E 002°36'0 0.0
2014-Aug-30 05:32N 51°20' E 002°36'0 0.0
2014-Aug-30 04:26N 51°20' E 002°36'0 0.0
2014-Aug-30 03:30N 51°20' E 002°36'0 0.0
2014-Aug-30 02:32N 51°20' E 002°36'0 0.0
2014-Aug-30 01:32N 51°20' E 002°36'0 0.0
2014-Aug-30 00:32N 51°20' E 002°36'0 0.0
2014-Aug-29 23:30N 51°20' E 002°36'0 0.0
2014-Aug-29 22:30N 51°20' E 002°36'0 0.0
2014-Aug-29 21:26N 51°20' E 002°36'0 0.0
2014-Aug-29 20:32N 51°20' E 002°36'0 0.0
2014-Aug-29 19:32N 51°20' E 002°36'0 0.0
2014-Aug-29 18:32N 51°20' E 002°36'0 0.0
2014-Aug-29 17:32N 51°20' E 002°36'0 0.0
2014-Aug-29 16:32N 51°20' E 002°36'0 0.0
2014-Aug-29 15:32N 51°20' E 002°36'0 0.0
2014-Aug-29 14:30N 51°20' E 002°36'0 0.0
2014-Aug-29 13:32N 51°20' E 002°36'0 0.0
2014-Aug-29 12:32N 51°20' E 002°36'8 7.6
2014-Aug-29 11:32N 51°20' E 002°24'1312.1
2014-Aug-29 10:30N 51°14' E 002°07'10 9.8
2014-Aug-29 09:31N 51°09' E 001°54'8 8.8
2014-Aug-29 08:33N 51°04' E 001°42'9 9.0
2014-Aug-29 07:33N 50°58' E 001°32'3510.1
2014-Aug-29 04:06N 50°30' E 000°59'610.9
2014-Aug-29 03:33N 50°28' E 000°50'1111.0
2014-Aug-29 02:33N 50°26' E 000°33'  
2014-Aug-25 05:14N 50°33' E 000°04'1014.6
2014-Aug-25 04:34N 50°35' E 000°20'1514.7
2014-Aug-25 03:34N 50°41' E 000°41'3213.4
2014-Aug-25 01:09N 50°59' E 001°24'711.2
2014-Aug-25 00:33N 51°04' E 001°31'1110.7
2014-Aug-24 23:33N 51°11' E 001°43'1211.9
2014-Aug-24 22:33N 51°21' E 001°54'1413.7
2014-Aug-24 21:33N 51°32' E 002°07'15113.5
2014-Aug-24 10:23N 53°30' E 004°43'1213.8
2014-Aug-24 09:32N 53°34' E 005°01'1212.5
2014-Aug-24 08:33N 53°38' E 005°21'1212.2
2014-Aug-24 07:33N 53°41' E 005°40'1311.8
2014-Aug-24 06:25N 53°45' E 006°02'15 7.0
2014-Aug-24 04:18N 53°37' E 006°22'1112.0
2014-Aug-24 03:21N 53°34' E 006°40'1113.5
2014-Aug-24 02:34N 53°27' E 006°54'8 7.5
2014-Aug-24 01:31N 53°19' E 006°58'0 0.0
2014-Aug-24 00:31N 53°19' E 006°58'0 0.0
2014-Aug-23 23:31N 53°19' E 006°58'0 0.0
2014-Aug-23 22:31N 53°19' E 006°58'0 0.0
2014-Aug-23 21:29N 53°19' E 006°58'0 0.0
2014-Aug-23 20:31N 53°19' E 006°58'0 0.0
2014-Aug-23 19:31N 53°19' E 006°58'0 0.0
2014-Aug-23 03:31N 53°19' E 006°58'0 0.0
2014-Aug-23 02:31N 53°19' E 006°58'0 0.0
2014-Aug-23 01:31N 53°19' E 006°58'0 0.0
2014-Aug-23 00:25N 53°19' E 006°58'0 0.0
2014-Aug-22 23:31N 53°19' E 006°58'0 0.0
2014-Aug-22 22:25N 53°19' E 006°58'0 0.0
2014-Aug-22 21:31N 53°19' E 006°58'0 0.0
2014-Aug-22 20:31N 53°19' E 006°58'0 0.0
2014-Aug-22 19:25N 53°19' E 006°58'0 0.0
2014-Aug-22 18:25N 53°19' E 006°58'0 0.0
2014-Aug-22 17:31N 53°19' E 006°58'1 1.2
2014-Aug-22 16:33N 53°20' E 006°56'5 5.5
2014-Aug-22 15:34N 53°25' E 006°56'  

Dump ship's entire track history